Fort Myers, FL

5:35 PM EDT on September 16, 2014 (GMT -0400)
Page | Change Station
CLOSE
Current Station
Airport
Location: Fort Myers,
Elevation: 16 ft
Nearby Weather Stations

Elev 16 ft 26.58 °N, 81.86 °W | Updated 42 minutes ago

Partly Cloudy
Partly Cloudy
86 °F
Feels Like 94 °F
N
9
Wind Variable Wind from West

Today
High -- | Low -- °F
--% Chance of Precip.
Yesterday
High -- | Low -- °F
Precip. -- in
7:13 AM 7:30 PM
Last Quarter, 42% visible
Pressure 29.97 in
Visibility 10.0 miles
Clouds Clear
Heat Index 94 °F
Dew Point 74 °F
Humidity 67%
Rainfall 0.00 in
Snow Depth Not available.
UV 5 out of 12
Pollen 6.70 out of 12
Air Quality Not available.
Flu Activity Not available.
METAR KFMY 162053Z 27008KT 10SM CLR 30/23 A2997 RMK AO2 LTG DSNT E SLP149 T03000233 58020

More Conditions Fewer Conditions

Pressure 29.97 in
Visibility 10.0 miles
Clouds Clear
Heat Index 94 °F
Dew Point 74 °F
Humidity 67%
Rainfall 0.00 in
Snow Depth Not available.
UV 5 out of 12
Pollen 6.70 out of 12
Air Quality Not available.
Flu Activity Not available.
METAR KFMY 162053Z 27008KT 10SM CLR 30/23 A2997 RMK AO2 LTG DSNT E SLP149 T03000233 58020

More Conditions Fewer Conditions

10-Day Weather Forecast

Almanac

Astronomy

Sep. 16, 2014 Rise Set
Actual Time 7:13 AM EDT 7:30 PM EDT
Civil Twilight 6:50 AM EDT 7:53 PM EDT
Nautical Twilight 6:23 AM EDT 8:20 PM EDT
Astronomical Twilight 5:55 AM EDT 8:48 PM EDT
Moon 12:45 AM EDT 2:29 PM EDT
Length of Visible Light 13h 03m
Length of Day
12h 17m
Tomorrow will be 1m 33s shorter.
Last Quarter, 42% of the Moon is Illuminated
Today
Last Quarter
Sep 24
New
Oct 1
First Quarter
Oct 8
Full
Oct 15
Last Quarter

Today's Extremes

State Highs State Lows

Community

WunderPhotos

Upload Photos

1,753,895 photos uploaded!

Nearby

Snow Depth

Station Depth Elevation
No new snow has been reported.

Earthquake Activity

City Distance Mag. Time & Date
No recent earthquake activity has been reported nearby.
Minimum magnitude displayed is 2.5.

Coastal Water Temperatures

Place Temperature
Fort Myers, FL 89.1 °F
Naples, FL 91.0 °F

Nearby Weather Stations